sensor_id;sensor_type;location;lat;lon;timestamp;pressure;altitude;pressure_sealevel;temperature;humidity
9059;BME280;4564;42.034;25.834;2022-10-31T00:01:43;100475.47;;;10.73;73.09
9059;BME280;4564;42.034;25.834;2022-10-31T00:04:10;100480.47;;;10.62;73.15
9059;BME280;4564;42.034;25.834;2022-10-31T00:06:37;100479.03;;;10.51;73.80
9059;BME280;4564;42.034;25.834;2022-10-31T00:09:04;100473.50;;;10.44;74.12
9059;BME280;4564;42.034;25.834;2022-10-31T00:11:32;100477.31;;;10.35;74.28
9059;BME280;4564;42.034;25.834;2022-10-31T00:13:58;100470.13;;;10.20;74.99
9059;BME280;4564;42.034;25.834;2022-10-31T00:16:25;100470.81;;;10.14;75.38
9059;BME280;4564;42.034;25.834;2022-10-31T00:18:53;100471.47;;;10.16;75.70
9059;BME280;4564;42.034;25.834;2022-10-31T00:21:20;100474.00;;;10.25;75.98
9059;BME280;4564;42.034;25.834;2022-10-31T00:23:48;100469.19;;;10.35;75.09
9059;BME280;4564;42.034;25.834;2022-10-31T00:26:14;100471.75;;;10.29;75.38
9059;BME280;4564;42.034;25.834;2022-10-31T00:28:43;100474.03;;;10.17;75.39
9059;BME280;4564;42.034;25.834;2022-10-31T00:31:10;100476.59;;;10.10;75.81
9059;BME280;4564;42.034;25.834;2022-10-31T00:33:37;100472.19;;;10.18;75.77
9059;BME280;4564;42.034;25.834;2022-10-31T00:36:05;100475.91;;;10.17;75.51
9059;BME280;4564;42.034;25.834;2022-10-31T00:38:32;100481.16;;;10.10;75.74
9059;BME280;4564;42.034;25.834;2022-10-31T00:40:58;100473.25;;;10.08;76.03
9059;BME280;4564;42.034;25.834;2022-10-31T00:43:25;100479.28;;;10.19;75.87
9059;BME280;4564;42.034;25.834;2022-10-31T00:45:53;100476.41;;;10.20;75.89
9059;BME280;4564;42.034;25.834;2022-10-31T00:48:20;100475.56;;;10.20;75.51
9059;BME280;4564;42.034;25.834;2022-10-31T00:50:46;100474.72;;;10.19;75.15
9059;BME280;4564;42.034;25.834;2022-10-31T00:53:13;100483.41;;;10.06;75.47
9059;BME280;4564;42.034;25.834;2022-10-31T00:55:40;100480.75;;;9.98;75.95
9059;BME280;4564;42.034;25.834;2022-10-31T00:58:06;100476.59;;;9.88;76.01
9059;BME280;4564;42.034;25.834;2022-10-31T01:00:33;100486.97;;;9.76;76.57
9059;BME280;4564;42.034;25.834;2022-10-31T01:03:01;100486.34;;;9.66;76.14
9059;BME280;4564;42.034;25.834;2022-10-31T01:05:27;100490.69;;;9.44;77.00
9059;BME280;4564;42.034;25.834;2022-10-31T01:07:54;100491.38;;;9.38;77.70
9059;BME280;4564;42.034;25.834;2022-10-31T01:10:21;100490.22;;;9.24;78.45
9059;BME280;4564;42.034;25.834;2022-10-31T01:12:48;100488.03;;;9.20;79.18
9059;BME280;4564;42.034;25.834;2022-10-31T01:15:16;100500.56;;;9.13;79.77
9059;BME280;4564;42.034;25.834;2022-10-31T01:17:43;100503.28;;;9.13;79.90
9059;BME280;4564;42.034;25.834;2022-10-31T01:20:12;100500.25;;;9.08;80.91
9059;BME280;4564;42.034;25.834;2022-10-31T01:22:39;100500.25;;;9.08;80.79
9059;BME280;4564;42.034;25.834;2022-10-31T01:25:06;100502.25;;;9.22;80.83
9059;BME280;4564;42.034;25.834;2022-10-31T01:27:33;100505.47;;;9.25;80.29
9059;BME280;4564;42.034;25.834;2022-10-31T01:29:59;100492.72;;;9.42;80.05
9059;BME280;4564;42.034;25.834;2022-10-31T01:32:26;100497.28;;;9.50;79.54
9059;BME280;4564;42.034;25.834;2022-10-31T01:34:54;100493.72;;;9.49;78.93
9059;BME280;4564;42.034;25.834;2022-10-31T01:37:22;100494.72;;;9.48;78.53
9059;BME280;4564;42.034;25.834;2022-10-31T01:39:48;100496.59;;;9.48;78.38
9059;BME280;4564;42.034;25.834;2022-10-31T01:42:15;100485.38;;;9.51;78.33
9059;BME280;4564;42.034;25.834;2022-10-31T01:44:51;100494.34;;;9.59;77.51
9059;BME280;4564;42.034;25.834;2022-10-31T01:47:19;100492.66;;;9.58;78.09
9059;BME280;4564;42.034;25.834;2022-10-31T01:49:48;100495.00;;;9.61;77.95
9059;BME280;4564;42.034;25.834;2022-10-31T01:52:16;100481.41;;;9.69;77.67
9059;BME280;4564;42.034;25.834;2022-10-31T01:54:47;100452.19;;;9.57;76.83
9059;BME280;4564;42.034;25.834;2022-10-31T01:57:15;100499.28;;;9.87;76.39
9059;BME280;4564;42.034;25.834;2022-10-31T01:59:44;100496.81;;;10.00;76.32
9059;BME280;4564;42.034;25.834;2022-10-31T02:02:12;100497.94;;;10.14;75.92
9059;BME280;4564;42.034;25.834;2022-10-31T02:04:39;100501.59;;;10.29;74.77
9059;BME280;4564;42.034;25.834;2022-10-31T02:07:07;100506.19;;;10.28;74.29
9059;BME280;4564;42.034;25.834;2022-10-31T02:09:36;100505.63;;;10.33;74.04
9059;BME280;4564;42.034;25.834;2022-10-31T02:12:05;100502.06;;;10.32;74.41
9059;BME280;4564;42.034;25.834;2022-10-31T02:14:32;100512.75;;;10.34;74.63
9059;BME280;4564;42.034;25.834;2022-10-31T02:16:59;100508.22;;;10.26;74.85
9059;BME280;4564;42.034;25.834;2022-10-31T02:19:26;100510.63;;;10.21;75.01
9059;BME280;4564;42.034;25.834;2022-10-31T02:21:57;100511.31;;;10.15;75.26
9059;BME280;4564;42.034;25.834;2022-10-31T02:27:25;100524.53;;;9.87;75.80
9059;BME280;4564;42.034;25.834;2022-10-31T02:30:02;100521.00;;;9.79;76.52
9059;BME280;4564;42.034;25.834;2022-10-31T02:32:34;100524.69;;;9.86;76.28
9059;BME280;4564;42.034;25.834;2022-10-31T02:35:03;100529.59;;;9.90;76.38
9059;BME280;4564;42.034;25.834;2022-10-31T02:37:37;100534.31;;;9.96;76.27
9059;BME280;4564;42.034;25.834;2022-10-31T02:40:05;100534.63;;;9.93;76.23
9059;BME280;4564;42.034;25.834;2022-10-31T02:42:38;100527.50;;;10.00;75.75
9059;BME280;4564;42.034;25.834;2022-10-31T02:45:10;100539.81;;;10.11;75.64
9059;BME280;4564;42.034;25.834;2022-10-31T02:47:40;100533.53;;;10.19;75.30
9059;BME280;4564;42.034;25.834;2022-10-31T02:50:08;100537.72;;;10.29;75.38
9059;BME280;4564;42.034;25.834;2022-10-31T02:52:37;100536.78;;;10.37;74.93
9059;BME280;4564;42.034;25.834;2022-10-31T02:55:11;100526.19;;;10.50;73.98
9059;BME280;4564;42.034;25.834;2022-10-31T02:57:38;100522.59;;;10.58;73.43
9059;BME280;4564;42.034;25.834;2022-10-31T03:00:06;100521.53;;;10.59;73.49
9059;BME280;4564;42.034;25.834;2022-10-31T03:02:37;100516.94;;;10.59;73.21
9059;BME280;4564;42.034;25.834;2022-10-31T03:05:12;100506.41;;;10.64;73.14
9059;BME280;4564;42.034;25.834;2022-10-31T03:07:42;100508.94;;;10.66;72.89
9059;BME280;4564;42.034;25.834;2022-10-31T03:10:13;100508.63;;;10.61;73.11
9059;BME280;4564;42.034;25.834;2022-10-31T03:12:44;100500.31;;;10.62;73.79
9059;BME280;4564;42.034;25.834;2022-10-31T03:15:15;100509.66;;;10.60;73.03
9059;BME280;4564;42.034;25.834;2022-10-31T03:17:47;100515.09;;;10.60;73.06
9059;BME280;4564;42.034;25.834;2022-10-31T03:20:18;100510.63;;;10.67;73.34
9059;BME280;4564;42.034;25.834;2022-10-31T03:22:46;100523.34;;;10.89;71.76
9059;BME280;4564;42.034;25.834;2022-10-31T03:25:13;100528.47;;;10.84;71.57
9059;BME280;4564;42.034;25.834;2022-10-31T03:27:40;100531.72;;;10.79;72.40
9059;BME280;4564;42.034;25.834;2022-10-31T03:30:08;100539.69;;;10.81;72.34
9059;BME280;4564;42.034;25.834;2022-10-31T03:32:36;100540.19;;;10.99;72.32
9059;BME280;4564;42.034;25.834;2022-10-31T03:35:05;100534.63;;;10.78;73.30
9059;BME280;4564;42.034;25.834;2022-10-31T03:37:34;100538.66;;;10.59;75.01
9059;BME280;4564;42.034;25.834;2022-10-31T03:40:02;100541.31;;;10.44;75.50
9059;BME280;4564;42.034;25.834;2022-10-31T03:42:32;100542.59;;;10.34;75.76
9059;BME280;4564;42.034;25.834;2022-10-31T03:45:02;100542.03;;;10.38;75.77
9059;BME280;4564;42.034;25.834;2022-10-31T03:47:31;100542.41;;;10.35;76.24
9059;BME280;4564;42.034;25.834;2022-10-31T03:49:58;100549.16;;;10.39;75.96
9059;BME280;4564;42.034;25.834;2022-10-31T03:52:25;100555.78;;;10.37;75.91
9059;BME280;4564;42.034;25.834;2022-10-31T03:54:56;100546.44;;;10.39;75.65
9059;BME280;4564;42.034;25.834;2022-10-31T03:57:26;100545.78;;;10.37;75.95
9059;BME280;4564;42.034;25.834;2022-10-31T03:59:55;100549.56;;;10.28;76.37
9059;BME280;4564;42.034;25.834;2022-10-31T04:02:25;100544.16;;;10.28;76.65
9059;BME280;4564;42.034;25.834;2022-10-31T04:04:53;100541.25;;;10.30;76.83
9059;BME280;4564;42.034;25.834;2022-10-31T04:07:20;100541.75;;;10.33;76.58
9059;BME280;4564;42.034;25.834;2022-10-31T04:09:49;100542.50;;;10.42;76.89
9059;BME280;4564;42.034;25.834;2022-10-31T04:12:17;100543.25;;;10.36;77.37
9059;BME280;4564;42.034;25.834;2022-10-31T04:14:45;100554.63;;;10.31;77.95
9059;BME280;4564;42.034;25.834;2022-10-31T04:17:13;100550.97;;;10.24;78.00
9059;BME280;4564;42.034;25.834;2022-10-31T04:19:41;100562.97;;;10.30;78.81
9059;BME280;4564;42.034;25.834;2022-10-31T04:22:07;100555.84;;;10.29;78.31
9059;BME280;4564;42.034;25.834;2022-10-31T04:24:34;100554.44;;;10.33;77.66
9059;BME280;4564;42.034;25.834;2022-10-31T04:27:01;100556.00;;;10.27;77.71
9059;BME280;4564;42.034;25.834;2022-10-31T04:29:28;100564.31;;;10.26;78.19
9059;BME280;4564;42.034;25.834;2022-10-31T04:31:55;100564.69;;;10.23;78.51
9059;BME280;4564;42.034;25.834;2022-10-31T04:34:22;100562.53;;;10.18;78.82
9059;BME280;4564;42.034;25.834;2022-10-31T04:36:48;100571.97;;;10.22;78.70
9059;BME280;4564;42.034;25.834;2022-10-31T04:39:15;100571.81;;;10.24;79.03
9059;BME280;4564;42.034;25.834;2022-10-31T04:41:42;100568.19;;;10.31;78.35
9059;BME280;4564;42.034;25.834;2022-10-31T04:44:08;100568.38;;;10.30;78.73
9059;BME280;4564;42.034;25.834;2022-10-31T04:46:36;100582.50;;;10.25;78.94
9059;BME280;4564;42.034;25.834;2022-10-31T04:49:03;100574.75;;;10.37;78.52
9059;BME280;4564;42.034;25.834;2022-10-31T04:51:29;100574.59;;;10.38;78.18
9059;BME280;4564;42.034;25.834;2022-10-31T04:53:56;100586.13;;;10.40;78.32
9059;BME280;4564;42.034;25.834;2022-10-31T04:56:23;100592.03;;;10.44;78.01
9059;BME280;4564;42.034;25.834;2022-10-31T04:58:49;100588.78;;;10.48;77.68
9059;BME280;4564;42.034;25.834;2022-10-31T05:01:16;100588.44;;;10.51;77.66
9059;BME280;4564;42.034;25.834;2022-10-31T05:03:44;100595.47;;;10.61;77.33
9059;BME280;4564;42.034;25.834;2022-10-31T05:06:10;100594.34;;;10.78;76.24
9059;BME280;4564;42.034;25.834;2022-10-31T05:08:37;100592.91;;;10.90;75.44
9059;BME280;4564;42.034;25.834;2022-10-31T05:11:04;100598.19;;;11.06;74.62
9059;BME280;4564;42.034;25.834;2022-10-31T05:13:30;100601.66;;;11.15;73.77
9059;BME280;4564;42.034;25.834;2022-10-31T05:15:57;100604.22;;;11.16;73.24
9059;BME280;4564;42.034;25.834;2022-10-31T05:18:24;100610.13;;;11.20;73.01
9059;BME280;4564;42.034;25.834;2022-10-31T05:20:52;100620.81;;;11.21;72.06
9059;BME280;4564;42.034;25.834;2022-10-31T05:23:18;100627.56;;;11.25;71.99
9059;BME280;4564;42.034;25.834;2022-10-31T05:25:45;100628.88;;;11.29;71.71
9059;BME280;4564;42.034;25.834;2022-10-31T05:28:11;100641.81;;;11.27;71.64
9059;BME280;4564;42.034;25.834;2022-10-31T05:30:38;100649.53;;;11.39;71.39
9059;BME280;4564;42.034;25.834;2022-10-31T05:33:05;100645.88;;;11.46;70.72
9059;BME280;4564;42.034;25.834;2022-10-31T05:35:31;100652.09;;;11.55;71.25
9059;BME280;4564;42.034;25.834;2022-10-31T05:38:00;100645.81;;;11.69;70.86
9059;BME280;4564;42.034;25.834;2022-10-31T05:40:27;100656.72;;;11.84;70.25
9059;BME280;4564;42.034;25.834;2022-10-31T05:42:54;100664.81;;;11.92;70.40
9059;BME280;4564;42.034;25.834;2022-10-31T05:45:21;100663.56;;;11.94;70.09
9059;BME280;4564;42.034;25.834;2022-10-31T05:47:49;100671.28;;;12.05;70.02
9059;BME280;4564;42.034;25.834;2022-10-31T05:50:16;100675.88;;;12.19;69.13
9059;BME280;4564;42.034;25.834;2022-10-31T05:52:43;100670.03;;;12.37;68.05
9059;BME280;4564;42.034;25.834;2022-10-31T05:55:11;100675.38;;;12.45;67.52
9059;BME280;4564;42.034;25.834;2022-10-31T05:57:37;100676.28;;;12.67;67.44
9059;BME280;4564;42.034;25.834;2022-10-31T06:00:04;100680.19;;;12.79;66.60
9059;BME280;4564;42.034;25.834;2022-10-31T06:02:31;100676.56;;;12.93;66.51
9059;BME280;4564;42.034;25.834;2022-10-31T06:04:59;100683.09;;;13.14;65.42
9059;BME280;4564;42.034;25.834;2022-10-31T06:07:26;100674.84;;;13.28;65.48
9059;BME280;4564;42.034;25.834;2022-10-31T06:09:53;100689.19;;;13.37;64.49
9059;BME280;4564;42.034;25.834;2022-10-31T06:12:21;100676.31;;;13.52;63.98
9059;BME280;4564;42.034;25.834;2022-10-31T06:14:48;100680.25;;;13.71;63.80
9059;BME280;4564;42.034;25.834;2022-10-31T06:17:14;100691.50;;;13.89;62.65
9059;BME280;4564;42.034;25.834;2022-10-31T06:19:41;100701.75;;;14.15;61.31
9059;BME280;4564;42.034;25.834;2022-10-31T06:22:08;100706.03;;;14.24;60.96
9059;BME280;4564;42.034;25.834;2022-10-31T06:24:39;100706.16;;;14.44;60.46
9059;BME280;4564;42.034;25.834;2022-10-31T06:27:06;100705.50;;;14.83;59.93
9059;BME280;4564;42.034;25.834;2022-10-31T06:29:34;100703.63;;;14.96;60.40
9059;BME280;4564;42.034;25.834;2022-10-31T06:32:01;100704.31;;;15.05;60.53
9059;BME280;4564;42.034;25.834;2022-10-31T06:34:27;100710.00;;;15.10;60.89
9059;BME280;4564;42.034;25.834;2022-10-31T06:37:09;100708.28;;;15.02;61.44
9059;BME280;4564;42.034;25.834;2022-10-31T06:39:47;100705.34;;;15.04;61.91
9059;BME280;4564;42.034;25.834;2022-10-31T06:42:34;100710.00;;;15.10;62.07
9059;BME280;4564;42.034;25.834;2022-10-31T06:45:22;100703.91;;;15.34;61.19
9059;BME280;4564;42.034;25.834;2022-10-31T06:48:09;100711.34;;;15.53;60.92
9059;BME280;4564;42.034;25.834;2022-10-31T06:50:36;100711.28;;;16.26;59.35
9059;BME280;4564;42.034;25.834;2022-10-31T06:53:02;100705.88;;;16.84;57.45
9059;BME280;4564;42.034;25.834;2022-10-31T06:55:29;100718.16;;;17.06;56.61
9059;BME280;4564;42.034;25.834;2022-10-31T06:58:03;100722.06;;;17.30;55.46
9059;BME280;4564;42.034;25.834;2022-10-31T07:00:33;100724.78;;;17.30;55.72
9059;BME280;4564;42.034;25.834;2022-10-31T07:03:04;100730.03;;;17.38;54.86
9059;BME280;4564;42.034;25.834;2022-10-31T07:05:31;100722.53;;;17.51;53.77
9059;BME280;4564;42.034;25.834;2022-10-31T07:08:18;100724.84;;;17.86;54.27
9059;BME280;4564;42.034;25.834;2022-10-31T07:10:50;100716.47;;;18.97;50.62
9059;BME280;4564;42.034;25.834;2022-10-31T07:13:17;100719.06;;;20.16;47.60
9059;BME280;4564;42.034;25.834;2022-10-31T07:15:45;100719.81;;;20.98;43.41
9059;BME280;4564;42.034;25.834;2022-10-31T07:18:11;100722.47;;;21.50;42.15
9059;BME280;4564;42.034;25.834;2022-10-31T07:20:38;100721.84;;;21.93;42.03
9059;BME280;4564;42.034;25.834;2022-10-31T07:23:05;100718.09;;;22.54;39.99
9059;BME280;4564;42.034;25.834;2022-10-31T07:25:31;100716.53;;;23.01;40.58
9059;BME280;4564;42.034;25.834;2022-10-31T07:27:58;100711.41;;;23.37;39.49
9059;BME280;4564;42.034;25.834;2022-10-31T07:30:25;100715.03;;;23.64;38.67
9059;BME280;4564;42.034;25.834;2022-10-31T07:32:53;100720.19;;;23.88;36.89
9059;BME280;4564;42.034;25.834;2022-10-31T07:35:21;100725.59;;;23.19;38.65
9059;BME280;4564;42.034;25.834;2022-10-31T07:37:48;100722.00;;;22.75;39.67
9059;BME280;4564;42.034;25.834;2022-10-31T07:40:15;100722.28;;;22.01;39.94
9059;BME280;4564;42.034;25.834;2022-10-31T07:42:42;100727.63;;;21.74;42.22
9059;BME280;4564;42.034;25.834;2022-10-31T07:45:09;100724.75;;;21.53;42.17
9059;BME280;4564;42.034;25.834;2022-10-31T07:47:39;100716.75;;;21.40;42.06
9059;BME280;4564;42.034;25.834;2022-10-31T07:50:08;100717.13;;;21.03;42.51
9059;BME280;4564;42.034;25.834;2022-10-31T07:52:35;100721.66;;;20.69;43.33
9059;BME280;4564;42.034;25.834;2022-10-31T07:55:02;100729.72;;;20.71;43.95
9059;BME280;4564;42.034;25.834;2022-10-31T07:57:28;100720.94;;;20.62;43.88
9059;BME280;4564;42.034;25.834;2022-10-31T07:59:55;100715.88;;;20.82;43.44
9059;BME280;4564;42.034;25.834;2022-10-31T08:02:22;100721.75;;;20.86;43.51
9059;BME280;4564;42.034;25.834;2022-10-31T08:04:49;100712.50;;;20.92;43.33
9059;BME280;4564;42.034;25.834;2022-10-31T08:07:17;100713.53;;;21.03;44.04
9059;BME280;4564;42.034;25.834;2022-10-31T08:09:43;100715.78;;;21.17;44.28
9059;BME280;4564;42.034;25.834;2022-10-31T08:12:10;100706.41;;;21.18;43.61
9059;BME280;4564;42.034;25.834;2022-10-31T08:14:36;100707.34;;;20.84;43.56
9059;BME280;4564;42.034;25.834;2022-10-31T08:17:03;100705.91;;;20.93;43.44
9059;BME280;4564;42.034;25.834;2022-10-31T08:19:30;100708.06;;;20.91;43.87
9059;BME280;4564;42.034;25.834;2022-10-31T08:21:56;100714.28;;;20.98;43.78
9059;BME280;4564;42.034;25.834;2022-10-31T08:24:25;100703.13;;;20.93;43.69
9059;BME280;4564;42.034;25.834;2022-10-31T08:26:51;100702.06;;;20.94;43.44
9059;BME280;4564;42.034;25.834;2022-10-31T08:29:18;100698.09;;;20.90;43.70
9059;BME280;4564;42.034;25.834;2022-10-31T08:31:45;100706.94;;;21.04;43.39
9059;BME280;4564;42.034;25.834;2022-10-31T08:34:11;100704.81;;;20.94;43.82
9059;BME280;4564;42.034;25.834;2022-10-31T08:36:38;100706.16;;;20.80;44.13
9059;BME280;4564;42.034;25.834;2022-10-31T08:39:04;100704.84;;;20.82;44.19
9059;BME280;4564;42.034;25.834;2022-10-31T08:41:32;100706.47;;;20.95;43.77
9059;BME280;4564;42.034;25.834;2022-10-31T08:44:00;100710.13;;;21.12;43.88
9059;BME280;4564;42.034;25.834;2022-10-31T08:46:27;100713.72;;;21.24;43.20
9059;BME280;4564;42.034;25.834;2022-10-31T08:48:53;100713.72;;;21.24;42.88
9059;BME280;4564;42.034;25.834;2022-10-31T08:51:20;100715.00;;;21.33;42.63
9059;BME280;4564;42.034;25.834;2022-10-31T08:53:46;100719.25;;;21.24;43.00
9059;BME280;4564;42.034;25.834;2022-10-31T08:56:13;100715.59;;;21.35;42.69
9059;BME280;4564;42.034;25.834;2022-10-31T08:58:41;100709.94;;;21.59;42.63
9059;BME280;4564;42.034;25.834;2022-10-31T09:01:07;100707.28;;;21.64;42.60
9059;BME280;4564;42.034;25.834;2022-10-31T09:03:34;100712.78;;;21.64;42.47
9059;BME280;4564;42.034;25.834;2022-10-31T09:06:01;100708.75;;;21.71;42.40
9059;BME280;4564;42.034;25.834;2022-10-31T09:08:29;100713.38;;;21.83;42.58
9059;BME280;4564;42.034;25.834;2022-10-31T09:10:56;100712.00;;;21.97;42.57
9059;BME280;4564;42.034;25.834;2022-10-31T09:13:23;100711.31;;;22.06;42.93
9059;BME280;4564;42.034;25.834;2022-10-31T09:15:51;100707.19;;;22.09;43.11
9059;BME280;4564;42.034;25.834;2022-10-31T09:18:20;100706.94;;;22.10;42.60
9059;BME280;4564;42.034;25.834;2022-10-31T09:20:47;100709.53;;;22.17;42.87
9059;BME280;4564;42.034;25.834;2022-10-31T09:23:15;100709.63;;;22.22;42.52
9059;BME280;4564;42.034;25.834;2022-10-31T09:25:42;100704.34;;;22.21;42.46
9059;BME280;4564;42.034;25.834;2022-10-31T09:28:10;100708.78;;;22.22;42.81
9059;BME280;4564;42.034;25.834;2022-10-31T09:30:37;100699.72;;;22.26;42.60
9059;BME280;4564;42.034;25.834;2022-10-31T09:33:06;100698.94;;;22.31;42.18
9059;BME280;4564;42.034;25.834;2022-10-31T09:35:33;100704.06;;;22.39;42.51
9059;BME280;4564;42.034;25.834;2022-10-31T09:38:00;100694.47;;;22.46;42.61
9059;BME280;4564;42.034;25.834;2022-10-31T09:40:29;100702.59;;;22.53;42.38
9059;BME280;4564;42.034;25.834;2022-10-31T09:42:59;100692.75;;;22.62;42.44
9059;BME280;4564;42.034;25.834;2022-10-31T09:45:28;100700.22;;;22.62;42.29
9059;BME280;4564;42.034;25.834;2022-10-31T09:48:01;100706.19;;;22.53;42.39
9059;BME280;4564;42.034;25.834;2022-10-31T09:50:36;100705.09;;;22.54;41.91
9059;BME280;4564;42.034;25.834;2022-10-31T09:53:07;100691.09;;;22.61;42.55
9059;BME280;4564;42.034;25.834;2022-10-31T09:55:36;100689.47;;;22.65;41.84
9059;BME280;4564;42.034;25.834;2022-10-31T09:58:04;100681.19;;;22.65;41.96
9059;BME280;4564;42.034;25.834;2022-10-31T10:00:31;100691.06;;;22.78;41.66
9059;BME280;4564;42.034;25.834;2022-10-31T10:03:00;100683.31;;;22.80;41.89
9059;BME280;4564;42.034;25.834;2022-10-31T10:05:29;100681.91;;;22.77;41.63
9059;BME280;4564;42.034;25.834;2022-10-31T10:08:01;100682.22;;;22.81;41.52
9059;BME280;4564;42.034;25.834;2022-10-31T10:10:36;100678.44;;;22.87;41.53
9059;BME280;4564;42.034;25.834;2022-10-31T10:16:17;100681.06;;;22.98;41.49
9059;BME280;4564;42.034;25.834;2022-10-31T10:18:50;100673.19;;;22.90;41.28
9059;BME280;4564;42.034;25.834;2022-10-31T10:21:25;100667.09;;;22.88;41.90
9059;BME280;4564;42.034;25.834;2022-10-31T10:23:57;100666.56;;;22.91;41.81
9059;BME280;4564;42.034;25.834;2022-10-31T10:26:34;100662.56;;;23.04;41.51
9059;BME280;4564;42.034;25.834;2022-10-31T10:29:03;100665.41;;;23.09;41.14
9059;BME280;4564;42.034;25.834;2022-10-31T10:31:35;100663.56;;;23.20;41.15
9059;BME280;4564;42.034;25.834;2022-10-31T10:34:06;100661.34;;;23.22;41.01
9059;BME280;4564;42.034;25.834;2022-10-31T10:36:36;100665.25;;;23.21;40.94
9059;BME280;4564;42.034;25.834;2022-10-31T10:39:07;100664.13;;;23.22;40.69
9059;BME280;4564;42.034;25.834;2022-10-31T10:41:38;100664.72;;;23.24;41.01
9059;BME280;4564;42.034;25.834;2022-10-31T10:44:08;100658.47;;;23.38;40.39
9059;BME280;4564;42.034;25.834;2022-10-31T10:46:40;100654.91;;;23.43;40.68
9059;BME280;4564;42.034;25.834;2022-10-31T10:49:25;100645.50;;;23.44;40.86
9059;BME280;4564;42.034;25.834;2022-10-31T10:51:54;100647.09;;;23.62;40.11
9059;BME280;4564;42.034;25.834;2022-10-31T10:54:36;100652.03;;;23.60;39.80
9059;BME280;4564;42.034;25.834;2022-10-31T10:57:08;100654.06;;;23.64;39.80
9059;BME280;4564;42.034;25.834;2022-10-31T10:59:36;100647.66;;;23.64;39.66
9059;BME280;4564;42.034;25.834;2022-10-31T11:02:09;100642.09;;;23.59;39.98
9059;BME280;4564;42.034;25.834;2022-10-31T11:04:41;100639.34;;;23.64;40.04
9059;BME280;4564;42.034;25.834;2022-10-31T11:07:09;100644.34;;;23.67;39.74
9059;BME280;4564;42.034;25.834;2022-10-31T11:09:38;100638.00;;;23.71;38.72
9059;BME280;4564;42.034;25.834;2022-10-31T11:12:08;100631.91;;;23.69;39.32
9059;BME280;4564;42.034;25.834;2022-10-31T11:14:36;100630.47;;;23.62;39.78
9059;BME280;4564;42.034;25.834;2022-10-31T11:17:09;100626.38;;;23.69;39.56
9059;BME280;4564;42.034;25.834;2022-10-31T11:19:36;100630.63;;;23.87;39.14
9059;BME280;4564;42.034;25.834;2022-10-31T11:22:06;100629.75;;;23.81;39.27
9059;BME280;4564;42.034;25.834;2022-10-31T11:24:38;100616.50;;;23.83;39.19
9059;BME280;4564;42.034;25.834;2022-10-31T11:27:11;100613.50;;;23.90;38.71
9059;BME280;4564;42.034;25.834;2022-10-31T11:29:39;100612.97;;;23.98;38.64
9059;BME280;4564;42.034;25.834;2022-10-31T11:32:08;100616.59;;;24.04;38.52
9059;BME280;4564;42.034;25.834;2022-10-31T11:34:43;100614.41;;;24.06;38.45
9059;BME280;4564;42.034;25.834;2022-10-31T11:37:15;100616.56;;;23.99;38.38
9059;BME280;4564;42.034;25.834;2022-10-31T11:39:48;100614.16;;;24.07;38.20
9059;BME280;4564;42.034;25.834;2022-10-31T11:42:19;100615.31;;;24.16;38.30
9059;BME280;4564;42.034;25.834;2022-10-31T11:44:47;100612.31;;;24.18;38.57
9059;BME280;4564;42.034;25.834;2022-10-31T11:47:13;100613.44;;;24.22;38.32
9059;BME280;4564;42.034;25.834;2022-10-31T11:49:42;100610.91;;;24.20;38.01
9059;BME280;4564;42.034;25.834;2022-10-31T11:52:12;100609.25;;;24.19;38.00
9059;BME280;4564;42.034;25.834;2022-10-31T11:54:41;100612.53;;;24.16;37.95
9059;BME280;4564;42.034;25.834;2022-10-31T11:57:22;100604.00;;;24.23;38.12
9059;BME280;4564;42.034;25.834;2022-10-31T11:59:50;100599.34;;;24.34;37.87
9059;BME280;4564;42.034;25.834;2022-10-31T12:02:18;100593.50;;;24.35;37.99
9059;BME280;4564;42.034;25.834;2022-10-31T12:04:46;100597.69;;;24.43;37.94
9059;BME280;4564;42.034;25.834;2022-10-31T12:07:15;100595.75;;;24.38;37.88
9059;BME280;4564;42.034;25.834;2022-10-31T12:09:42;100601.81;;;24.35;38.05
9059;BME280;4564;42.034;25.834;2022-10-31T12:12:29;100602.38;;;24.32;37.92
9059;BME280;4564;42.034;25.834;2022-10-31T12:15:02;100595.41;;;24.24;37.86
9059;BME280;4564;42.034;25.834;2022-10-31T12:17:31;100588.97;;;24.19;37.65
9059;BME280;4564;42.034;25.834;2022-10-31T12:20:03;100593.75;;;24.23;38.04
9059;BME280;4564;42.034;25.834;2022-10-31T12:22:36;100588.72;;;24.20;37.93
9059;BME280;4564;42.034;25.834;2022-10-31T12:25:09;100592.00;;;24.12;38.26
9059;BME280;4564;42.034;25.834;2022-10-31T12:27:46;100579.03;;;24.18;37.71
9059;BME280;4564;42.034;25.834;2022-10-31T12:30:19;100580.41;;;24.25;37.87
9059;BME280;4564;42.034;25.834;2022-10-31T12:32:54;100579.31;;;24.21;37.40
9059;BME280;4564;42.034;25.834;2022-10-31T12:35:26;100574.34;;;24.29;37.07
9059;BME280;4564;42.034;25.834;2022-10-31T12:38:03;100578.25;;;24.33;37.25
9059;BME280;4564;42.034;25.834;2022-10-31T12:40:39;100581.84;;;24.33;37.09
9059;BME280;4564;42.034;25.834;2022-10-31T12:43:16;100572.66;;;24.22;37.37
9059;BME280;4564;42.034;25.834;2022-10-31T12:45:50;100574.53;;;24.17;37.55
9059;BME280;4564;42.034;25.834;2022-10-31T12:48:28;100577.84;;;24.14;37.54
9059;BME280;4564;42.034;25.834;2022-10-31T12:50:58;100575.63;;;24.11;37.64
9059;BME280;4564;42.034;25.834;2022-10-31T12:53:36;100582.03;;;24.16;37.81
9059;BME280;4564;42.034;25.834;2022-10-31T12:56:12;100582.34;;;24.25;37.41
9059;BME280;4564;42.034;25.834;2022-10-31T12:58:43;100579.31;;;24.21;37.38
9059;BME280;4564;42.034;25.834;2022-10-31T13:01:12;100576.78;;;24.20;37.71
9059;BME280;4564;42.034;25.834;2022-10-31T13:03:42;100575.13;;;24.24;38.07
9059;BME280;4564;42.034;25.834;2022-10-31T13:06:13;100575.34;;;24.12;37.45
9059;BME280;4564;42.034;25.834;2022-10-31T13:08:43;100586.69;;;24.06;37.29
9059;BME280;4564;42.034;25.834;2022-10-31T13:11:13;100576.34;;;23.91;37.60
9059;BME280;4564;42.034;25.834;2022-10-31T13:13:42;100574.91;;;23.83;37.66
9059;BME280;4564;42.034;25.834;2022-10-31T13:16:13;100572.69;;;23.80;37.92
9059;BME280;4564;42.034;25.834;2022-10-31T13:18:43;100577.91;;;23.77;38.18